createdAt,value
2023-02-28T00:00:38.035Z,44.58
2023-02-28T00:05:39.575Z,44.47
2023-02-28T00:10:41.137Z,44.45
2023-02-28T00:15:42.650Z,44.62
2023-02-28T00:20:44.158Z,44.67
2023-02-28T00:25:45.798Z,44.21
2023-02-28T00:30:47.890Z,44.32
2023-02-28T00:35:49.800Z,44.16
2023-02-28T00:40:51.462Z,44.40
2023-02-28T00:45:53.043Z,44.66
2023-02-28T00:50:54.815Z,44.70
2023-02-28T00:55:56.332Z,44.52
2023-02-28T01:00:57.908Z,44.48
2023-02-28T01:05:59.685Z,44.47
2023-02-28T01:11:09.534Z,44.59
2023-02-28T01:16:11.166Z,44.53
2023-02-28T01:21:15.840Z,44.64
2023-02-28T01:26:22.223Z,44.60
2023-02-28T01:31:24.904Z,44.41
2023-02-28T01:36:26.631Z,44.57
2023-02-28T01:41:32.160Z,44.60
2023-02-28T01:46:36.612Z,44.99
2023-02-28T01:51:54.035Z,44.80
2023-02-28T01:56:59.091Z,45.18
2023-02-28T02:02:01.498Z,45.06
2023-02-28T02:07:03.717Z,45.38
2023-02-28T02:12:31.664Z,45.54
2023-02-28T02:17:39.528Z,45.26
2023-02-28T02:23:09.100Z,45.19
2023-02-28T02:28:44.702Z,45.78
2023-02-28T02:34:27.163Z,45.78
2023-02-28T02:39:41.854Z,46.08
2023-02-28T02:44:58.014Z,45.76
2023-02-28T02:50:05.640Z,46.02
2023-02-28T02:55:12.057Z,45.81
2023-02-28T03:00:16.698Z,45.98
2023-02-28T03:05:29.504Z,46.08
2023-02-28T03:10:41.252Z,45.97
2023-02-28T03:15:56.724Z,45.95
2023-02-28T03:21:21.538Z,45.94
2023-02-28T03:26:26.696Z,45.91
2023-02-28T03:31:34.276Z,45.95
2023-02-28T03:36:46.882Z,45.99
2023-02-28T03:41:58.578Z,46.33
2023-02-28T03:47:18.717Z,46.19
2023-02-28T03:52:24.508Z,46.33
2023-02-28T03:57:41.059Z,46.25
2023-02-28T04:02:42.659Z,46.31
2023-02-28T04:07:44.161Z,46.49
2023-02-28T04:12:45.639Z,46.13
2023-02-28T04:17:47.178Z,46.50
2023-02-28T04:22:48.720Z,46.41
2023-02-28T04:27:50.181Z,46.74
2023-02-28T04:32:51.665Z,46.76
2023-02-28T04:37:53.233Z,47.15
2023-02-28T04:42:54.731Z,46.73
2023-02-28T04:47:56.268Z,46.98
2023-02-28T04:52:57.847Z,47.04
2023-02-28T04:57:59.336Z,47.52
2023-02-28T05:03:00.883Z,47.02
2023-02-28T05:08:02.430Z,46.94
2023-02-28T05:13:04.257Z,47.29
2023-02-28T05:18:05.837Z,47.31
2023-02-28T05:23:07.460Z,47.57
2023-02-28T05:28:09.199Z,47.46
2023-02-28T05:33:12.281Z,47.32
2023-02-28T05:38:13.818Z,47.58
2023-02-28T05:43:15.293Z,47.26
2023-02-28T05:48:17.789Z,47.77
2023-02-28T05:53:19.312Z,47.56
2023-02-28T05:58:21.875Z,47.37
2023-02-28T06:03:23.403Z,47.71
2023-02-28T06:08:24.946Z,47.50
2023-02-28T06:13:26.453Z,47.07
2023-02-28T06:18:28.313Z,47.21
2023-02-28T06:23:30.627Z,47.24
2023-02-28T06:28:33.127Z,46.99
2023-02-28T06:33:35.201Z,47.21
2023-02-28T06:38:37.442Z,46.98
2023-02-28T06:43:42.093Z,46.39
2023-02-28T06:48:45.684Z,46.70
2023-02-28T06:53:47.478Z,46.53
2023-02-28T06:58:50.715Z,46.56
2023-02-28T07:03:53.612Z,46.68
2023-02-28T07:08:55.628Z,46.24
2023-02-28T07:13:57.888Z,46.41
2023-02-28T07:18:59.728Z,46.10
2023-02-28T07:24:01.404Z,46.32
2023-02-28T07:29:03.257Z,46.24
2023-02-28T07:34:04.783Z,46.15
2023-02-28T07:39:06.283Z,45.98
2023-02-28T07:44:07.834Z,45.69
2023-02-28T07:49:09.425Z,45.77
2023-02-28T07:54:11.011Z,46.08
2023-02-28T07:59:12.715Z,45.68
2023-02-28T08:04:14.216Z,46.23
2023-02-28T08:09:15.775Z,46.08
2023-02-28T08:14:17.356Z,45.94
2023-02-28T08:19:18.964Z,45.99
2023-02-28T08:24:20.515Z,45.57
2023-02-28T08:29:22.462Z,46.12
2023-02-28T08:34:24.133Z,45.77
2023-02-28T08:39:25.795Z,45.64
2023-02-28T08:44:28.295Z,45.08
2023-02-28T08:49:29.887Z,45.36
2023-02-28T08:54:33.261Z,45.01
2023-02-28T08:59:34.867Z,45.16
2023-02-28T09:04:36.441Z,44.93
2023-02-28T09:09:38.092Z,44.77
2023-02-28T09:14:39.872Z,44.68
2023-02-28T09:19:41.536Z,44.61
2023-02-28T09:24:43.149Z,44.61
2023-02-28T09:29:44.727Z,44.14
2023-02-28T09:34:46.272Z,44.02
2023-02-28T09:39:48.110Z,43.78
2023-02-28T09:44:51.175Z,44.12
2023-02-28T09:49:53.204Z,43.85
2023-02-28T09:54:56.064Z,43.54
2023-02-28T10:00:12.889Z,43.60
2023-02-28T10:05:18.457Z,43.44
2023-02-28T10:10:25.480Z,43.38
2023-02-28T10:15:31.335Z,43.02
2023-02-28T10:20:41.061Z,43.06
2023-02-28T10:25:49.034Z,43.17
2023-02-28T10:30:53.006Z,42.83
2023-02-28T10:35:55.539Z,42.78
2023-02-28T10:41:11.612Z,42.95
2023-02-28T10:46:26.879Z,42.60
2023-02-28T10:51:37.589Z,42.19
2023-02-28T10:56:39.148Z,42.13
2023-02-28T11:01:42.342Z,41.54
2023-02-28T11:06:44.171Z,41.87
2023-02-28T11:11:48.235Z,41.58
2023-02-28T11:16:51.509Z,41.50
2023-02-28T11:22:00.396Z,41.59
2023-02-28T11:27:02.536Z,41.33
2023-02-28T11:32:23.847Z,41.55
2023-02-28T11:37:25.553Z,41.54
2023-02-28T11:42:47.109Z,41.35
2023-02-28T11:48:15.897Z,40.77
2023-02-28T11:53:17.730Z,41.21
2023-02-28T11:58:34.650Z,41.03
2023-02-28T12:03:59.150Z,40.44
2023-02-28T12:09:28.218Z,40.10
2023-02-28T12:14:43.456Z,39.96
2023-02-28T12:20:06.979Z,39.82
2023-02-28T12:25:08.708Z,39.67
2023-02-28T12:30:31.086Z,39.72
2023-02-28T12:35:42.039Z,39.73
2023-02-28T12:41:00.760Z,39.71
2023-02-28T12:46:12.251Z,39.50
2023-02-28T12:51:16.418Z,39.12
2023-02-28T12:56:25.873Z,39.41
2023-02-28T13:01:49.684Z,39.30
2023-02-28T13:07:10.300Z,39.08
2023-02-28T13:12:16.734Z,38.84
2023-02-28T13:17:22.175Z,38.81
2023-02-28T13:22:26.714Z,38.68
2023-02-28T13:27:41.414Z,38.87
2023-02-28T13:32:43.317Z,38.89
2023-02-28T13:37:46.016Z,38.88
2023-02-28T13:42:50.612Z,38.37
2023-02-28T13:48:26.320Z,38.54
2023-02-28T13:53:58.231Z,38.40
2023-02-28T13:59:13.711Z,37.94
2023-02-28T14:04:53.673Z,38.03
2023-02-28T14:10:09.676Z,38.22
2023-02-28T14:15:33.380Z,37.87
2023-02-28T14:20:35.448Z,37.26
2023-02-28T14:25:57.252Z,37.67
2023-02-28T14:31:08.855Z,37.57
2023-02-28T14:36:17.506Z,37.31
2023-02-28T14:41:32.307Z,37.62
2023-02-28T14:46:40.876Z,37.64
2023-02-28T14:51:43.319Z,37.12
2023-02-28T14:56:45.033Z,37.12
2023-02-28T15:01:46.893Z,36.91
2023-02-28T15:07:08.440Z,36.69
2023-02-28T15:12:15.355Z,36.54
2023-02-28T15:17:25.986Z,36.25
2023-02-28T15:22:36.945Z,36.10
2023-02-28T15:27:47.327Z,36.25
2023-02-28T15:33:21.664Z,36.14
2023-02-28T15:38:28.341Z,36.16
2023-02-28T15:43:32.473Z,35.79
2023-02-28T15:48:38.280Z,35.68
2023-02-28T15:53:50.820Z,35.76
2023-02-28T15:58:57.410Z,35.56
2023-02-28T16:04:03.872Z,35.54
2023-02-28T16:09:08.874Z,35.51
2023-02-28T16:14:16.688Z,35.50
2023-02-28T16:19:18.673Z,35.53
2023-02-28T16:24:20.298Z,35.42
2023-02-28T16:29:35.873Z,35.50
2023-02-28T16:34:37.404Z,35.45
2023-02-28T16:39:39.014Z,35.44
2023-02-28T16:44:41.261Z,35.60
2023-02-28T16:49:44.039Z,35.64
2023-02-28T16:54:45.619Z,35.98
2023-02-28T16:59:47.319Z,35.72
2023-02-28T17:04:48.886Z,36.28
2023-02-28T17:09:50.421Z,36.12
2023-02-28T17:14:51.922Z,36.19
2023-02-28T17:19:53.444Z,36.60
2023-02-28T17:24:58.554Z,36.54
2023-02-28T17:30:00.840Z,36.30
2023-02-28T17:35:02.354Z,36.90
2023-02-28T17:40:05.121Z,36.97
2023-02-28T17:45:07.132Z,37.14
2023-02-28T17:50:15.617Z,37.65
2023-02-28T17:55:17.408Z,37.54
2023-02-28T18:00:19.443Z,37.77
2023-02-28T18:05:21.054Z,38.05
2023-02-28T18:10:23.078Z,37.82
2023-02-28T18:15:24.720Z,38.08
2023-02-28T18:20:27.037Z,38.13
2023-02-28T18:25:28.576Z,38.23
2023-02-28T18:30:33.016Z,38.74
2023-02-28T18:35:35.129Z,38.28
2023-02-28T18:40:37.947Z,38.80
2023-02-28T18:45:39.902Z,38.56
2023-02-28T18:50:42.083Z,38.92
2023-02-28T18:55:43.916Z,39.14
2023-02-28T19:00:47.876Z,38.78
2023-02-28T19:05:50.743Z,39.11
2023-02-28T19:10:52.926Z,39.02
2023-02-28T19:16:01.969Z,39.14
2023-02-28T19:21:03.931Z,39.76
2023-02-28T19:26:10.720Z,39.58
2023-02-28T19:31:14.310Z,39.65
2023-02-28T19:36:16.141Z,39.65
2023-02-28T19:41:18.311Z,39.64
2023-02-28T19:46:20.225Z,39.72
2023-02-28T19:51:22.791Z,40.26
2023-02-28T19:56:24.629Z,40.10
2023-02-28T20:01:26.195Z,40.16
2023-02-28T20:06:28.040Z,40.61
2023-02-28T20:11:29.848Z,40.44
2023-02-28T20:16:32.453Z,40.34
2023-02-28T20:21:34.566Z,40.46
2023-02-28T20:26:37.155Z,40.28
2023-02-28T20:31:38.758Z,40.88
2023-02-28T20:36:40.347Z,40.92
2023-02-28T20:41:41.947Z,41.01
2023-02-28T20:46:43.815Z,41.10
2023-02-28T20:51:45.505Z,41.03
2023-02-28T20:56:47.530Z,40.98
2023-02-28T21:01:49.177Z,40.95
2023-02-28T21:06:51.951Z,40.79
2023-02-28T21:11:54.323Z,41.26
2023-02-28T21:16:55.893Z,41.52
2023-02-28T21:21:58.484Z,41.40
2023-02-28T21:27:01.171Z,41.28
2023-02-28T21:32:02.871Z,41.59
2023-02-28T21:37:05.801Z,41.71
2023-02-28T21:42:08.844Z,42.10
2023-02-28T21:47:10.538Z,41.98
2023-02-28T21:52:12.114Z,42.00
2023-02-28T21:57:14.173Z,41.96
2023-02-28T22:02:15.974Z,41.82
2023-02-28T22:07:18.180Z,42.03
2023-02-28T22:12:19.767Z,41.92
2023-02-28T22:17:21.271Z,42.42
2023-02-28T22:22:22.848Z,42.21
2023-02-28T22:27:24.356Z,42.49
2023-02-28T22:32:25.986Z,42.62
2023-02-28T22:37:27.524Z,42.79
2023-02-28T22:42:32.857Z,42.71
2023-02-28T22:47:34.434Z,42.90
2023-02-28T22:52:39.646Z,43.16
2023-02-28T22:57:41.236Z,43.36
2023-02-28T23:02:43.694Z,43.29
2023-02-28T23:07:46.063Z,43.21
2023-02-28T23:12:50.502Z,43.39
2023-02-28T23:17:52.094Z,43.26
2023-02-28T23:22:53.618Z,43.43
2023-02-28T23:27:55.136Z,43.32
2023-02-28T23:32:56.648Z,43.59
2023-02-28T23:38:02.612Z,43.69
2023-02-28T23:43:04.329Z,43.38
2023-02-28T23:48:06.292Z,43.41
2023-02-28T23:53:08.317Z,43.34
2023-02-28T23:58:09.845Z,42.98
